createdAt,value
2019-01-25T00:00:38.684Z,0.10
2019-01-25T00:03:09.988Z,0.20
2019-01-25T00:05:33.993Z,0.30
2019-01-25T00:08:00.532Z,0.40
2019-01-25T00:10:27.023Z,0.40
2019-01-25T00:12:53.393Z,0.00
2019-01-25T00:15:20.177Z,0.00
2019-01-25T00:17:46.850Z,0.10
2019-01-25T00:20:13.604Z,0.30
2019-01-25T00:22:40.277Z,0.10
2019-01-25T00:25:06.995Z,0.10
2019-01-25T00:27:33.592Z,0.10
2019-01-25T00:30:00.037Z,0.10
2019-01-25T00:32:27.109Z,0.10
2019-01-25T00:34:53.593Z,0.30
2019-01-25T00:37:20.144Z,0.30
2019-01-25T00:39:46.528Z,0.00
2019-01-25T00:42:13.226Z,0.10
2019-01-25T00:44:39.801Z,0.30
2019-01-25T00:47:06.247Z,-0.10
2019-01-25T00:49:33.142Z,-0.10
2019-01-25T00:51:59.677Z,0.10
2019-01-25T00:54:26.280Z,-0.10
2019-01-25T00:56:52.721Z,-0.30
2019-01-25T00:59:19.173Z,-0.10
2019-01-25T01:01:45.734Z,0.00
2019-01-25T01:04:12.194Z,0.10
2019-01-25T01:06:38.792Z,0.10
2019-01-25T01:09:06.636Z,0.30
2019-01-25T01:11:33.405Z,0.10
2019-01-25T01:13:59.857Z,0.30
2019-01-25T01:16:26.350Z,0.20
2019-01-25T01:18:52.996Z,0.10
2019-01-25T01:21:19.439Z,0.00
2019-01-25T01:23:45.807Z,0.30
2019-01-25T01:26:12.356Z,0.40
2019-01-25T01:28:39.035Z,0.30
2019-01-25T01:31:05.500Z,0.20
2019-01-25T01:33:31.979Z,0.20
2019-01-25T01:35:58.325Z,0.20
2019-01-25T01:38:24.871Z,0.00
2019-01-25T02:15:27.925Z,0.30
2019-01-25T02:17:54.875Z,0.40
2019-01-25T02:20:26.143Z,0.30
2019-01-25T02:22:52.912Z,0.10
2019-01-25T02:25:19.473Z,0.30
2019-01-25T02:27:46.039Z,0.20
2019-01-25T02:30:17.461Z,0.30
2019-01-25T02:32:44.017Z,0.30
2019-01-25T02:35:10.573Z,0.40
2019-01-25T02:37:37.151Z,0.20
2019-01-25T02:40:06.799Z,0.40
2019-01-25T02:42:33.392Z,0.10
2019-01-25T02:44:59.827Z,0.40
2019-01-25T02:47:26.461Z,0.80
2019-01-25T02:49:53.231Z,0.70
2019-01-25T02:52:19.683Z,0.40
2019-01-25T02:54:46.069Z,0.70
2019-01-25T02:57:12.420Z,0.20
2019-01-25T02:59:38.897Z,0.70
2019-01-25T03:02:05.445Z,0.30
2019-01-25T03:04:31.938Z,0.50
2019-01-25T03:06:58.387Z,0.70
2019-01-25T03:09:25.111Z,0.60
2019-01-25T03:11:51.670Z,0.70
2019-01-25T03:14:18.148Z,0.70
2019-01-25T03:16:44.600Z,0.30
2019-01-25T03:19:11.243Z,0.40
2019-01-25T03:21:37.623Z,0.50
2019-01-25T03:24:04.179Z,0.50
2019-01-25T03:26:30.729Z,0.40
2019-01-25T03:28:57.200Z,0.50
2019-01-25T03:31:24.130Z,0.50
2019-01-25T03:33:50.717Z,0.60
2019-01-25T03:36:17.365Z,0.80
2019-01-25T03:38:44.132Z,0.60
2019-01-25T03:41:10.689Z,0.60
2019-01-25T03:43:37.152Z,0.70
2019-01-25T03:46:04.229Z,0.40
2019-01-25T03:48:30.777Z,0.50
2019-01-25T03:50:57.334Z,0.30
2019-01-25T03:53:23.798Z,0.40
2019-01-25T03:55:50.148Z,0.60
2019-01-25T03:58:16.837Z,0.50
2019-01-25T04:00:43.660Z,0.80
2019-01-25T04:03:10.605Z,0.70
2019-01-25T04:05:37.080Z,0.30
2019-01-25T04:08:04.113Z,0.40
2019-01-25T04:10:31.252Z,0.60
2019-01-25T04:12:57.879Z,0.80
2019-01-25T04:15:30.453Z,0.80
2019-01-25T04:17:56.994Z,0.90
2019-01-25T04:20:23.806Z,0.90
2019-01-25T04:22:50.448Z,0.50
2019-01-25T04:25:21.619Z,0.70
2019-01-25T04:27:48.282Z,0.60
2019-01-25T04:30:25.428Z,0.70
2019-01-25T04:32:52.193Z,1.00
2019-01-25T04:35:18.882Z,1.10
2019-01-25T04:37:45.344Z,1.00
2019-01-25T04:40:13.891Z,0.80
2019-01-25T04:42:40.475Z,0.60
2019-01-25T04:45:09.846Z,0.90
2019-01-25T04:47:36.521Z,0.90
2019-01-25T04:50:06.764Z,0.80
2019-01-25T04:52:33.336Z,0.70
2019-01-25T04:55:04.882Z,0.30
2019-01-25T04:57:31.361Z,0.40
2019-01-25T04:59:57.934Z,0.40
2019-01-25T05:02:24.645Z,0.60
2019-01-25T05:04:51.106Z,0.70
2019-01-25T05:07:17.698Z,0.60
2019-01-25T05:09:44.164Z,0.40
2019-01-25T05:12:10.652Z,0.70
2019-01-25T05:14:37.102Z,0.40
2019-01-25T05:17:04.125Z,0.80
2019-01-25T05:19:38.315Z,0.80
2019-01-25T05:22:04.913Z,0.70
2019-01-25T05:24:31.366Z,0.70
2019-01-25T05:26:57.937Z,0.90
2019-01-25T05:29:44.316Z,0.80
2019-01-25T05:32:10.801Z,0.60
2019-01-25T05:34:37.996Z,0.90
2019-01-25T05:37:06.477Z,0.90
2019-01-25T05:39:33.039Z,1.10
2019-01-25T05:41:59.525Z,0.70
2019-01-25T05:44:26.000Z,0.90
2019-01-25T05:46:52.880Z,0.50
2019-01-25T05:49:22.797Z,0.90
2019-01-25T05:51:49.384Z,1.00
2019-01-25T05:54:15.845Z,1.00
2019-01-25T05:56:42.315Z,1.00
2019-01-25T05:59:08.781Z,1.10
2019-01-25T06:01:41.001Z,0.80
2019-01-25T06:04:07.437Z,1.00
2019-01-25T06:06:34.028Z,1.10
2019-01-25T06:09:00.487Z,0.80
2019-01-25T06:11:26.947Z,0.80
2019-01-25T06:13:53.501Z,0.80
2019-01-25T06:16:20.380Z,0.80
2019-01-25T06:18:47.150Z,0.90
2019-01-25T06:21:13.807Z,0.80
2019-01-25T06:23:40.293Z,1.00
2019-01-25T06:26:07.071Z,1.00
2019-01-25T06:28:33.763Z,1.00
2019-01-25T06:31:00.422Z,0.90
2019-01-25T06:33:27.101Z,0.90
2019-01-25T06:35:53.699Z,0.60
2019-01-25T06:38:20.696Z,0.90
2019-01-25T06:40:47.129Z,0.70
2019-01-25T06:43:14.100Z,0.90
2019-01-25T06:45:40.651Z,0.50
2019-01-25T06:48:07.600Z,0.50
2019-01-25T06:50:34.061Z,1.00
2019-01-25T06:53:00.925Z,1.30
2019-01-25T06:55:27.501Z,0.90
2019-01-25T06:58:12.377Z,1.10
2019-01-25T07:00:43.820Z,0.70
2019-01-25T07:03:10.358Z,0.70
2019-01-25T07:05:36.821Z,0.90
2019-01-25T07:08:03.408Z,1.00
2019-01-25T07:10:29.957Z,0.60
2019-01-25T07:12:56.535Z,0.50
2019-01-25T07:15:24.585Z,0.50
2019-01-25T07:17:51.067Z,0.80
2019-01-25T07:20:17.507Z,0.70
2019-01-25T07:22:43.987Z,0.70
2019-01-25T07:25:12.364Z,1.00
2019-01-25T07:27:38.831Z,1.10
2019-01-25T07:30:09.091Z,0.80
2019-01-25T07:32:35.569Z,0.60
2019-01-25T07:35:04.625Z,0.80
2019-01-25T07:37:31.380Z,0.70
2019-01-25T07:39:58.090Z,0.50
2019-01-25T07:42:24.779Z,0.50
2019-01-25T07:44:51.640Z,0.80
2019-01-25T07:47:18.712Z,0.60
2019-01-25T07:49:45.498Z,0.90
2019-01-25T07:52:12.616Z,0.80
2019-01-25T07:54:39.418Z,1.00
2019-01-25T07:57:05.947Z,1.00
2019-01-25T07:59:32.416Z,0.80
2019-01-25T08:01:58.921Z,1.00
2019-01-25T08:04:25.449Z,1.10
2019-01-25T08:06:51.972Z,0.90
2019-01-25T08:09:18.451Z,1.10
2019-01-25T08:11:44.951Z,1.20
2019-01-25T08:14:12.873Z,1.20
2019-01-25T08:16:39.514Z,1.50
2019-01-25T08:19:06.357Z,1.40
2019-01-25T08:21:32.814Z,1.20
2019-01-25T08:23:59.283Z,1.50
2019-01-25T08:26:26.112Z,1.60
2019-01-25T08:28:52.697Z,1.40
2019-01-25T08:31:19.134Z,1.40
2019-01-25T08:33:45.583Z,1.30
2019-01-25T08:36:12.051Z,1.20
2019-01-25T08:38:38.445Z,1.20
2019-01-25T08:41:05.241Z,1.10
2019-01-25T08:43:31.721Z,1.20
2019-01-25T08:45:58.286Z,1.20
2019-01-25T08:48:24.753Z,1.20
2019-01-25T08:50:51.231Z,1.30
2019-01-25T08:53:17.715Z,1.20
2019-01-25T08:55:44.349Z,1.40
2019-01-25T08:58:10.804Z,1.40
2019-01-25T09:00:38.017Z,1.40
2019-01-25T09:03:04.605Z,1.40
2019-01-25T09:05:31.589Z,1.20
2019-01-25T09:07:58.033Z,1.20
2019-01-25T09:10:25.836Z,1.30
2019-01-25T09:12:52.376Z,1.30
2019-01-25T09:15:27.817Z,1.50
2019-01-25T09:17:54.375Z,1.80
2019-01-25T09:20:21.304Z,1.60
2019-01-25T09:22:48.136Z,1.70
2019-01-25T09:25:14.900Z,1.70
2019-01-25T09:27:41.484Z,2.00
2019-01-25T09:30:17.377Z,2.10
2019-01-25T09:32:44.068Z,1.90
2019-01-25T09:35:11.018Z,1.90
2019-01-25T09:37:37.587Z,1.90
2019-01-25T09:40:07.732Z,1.70
2019-01-25T09:42:34.222Z,2.10
2019-01-25T09:45:01.052Z,1.90
2019-01-25T09:47:27.720Z,1.70
2019-01-25T09:49:54.317Z,1.60
2019-01-25T09:52:20.818Z,1.80
2019-01-25T09:54:47.469Z,1.90
2019-01-25T09:57:14.188Z,2.00
2019-01-25T09:59:42.306Z,1.70
2019-01-25T10:02:08.995Z,1.80
2019-01-25T10:04:35.729Z,1.90
2019-01-25T10:07:02.533Z,1.70
2019-01-25T10:09:29.215Z,2.00
2019-01-25T10:11:55.805Z,2.30
2019-01-25T10:14:22.276Z,2.00
2019-01-25T10:16:48.739Z,2.20
2019-01-25T10:19:15.119Z,2.10
2019-01-25T10:21:41.665Z,2.20
2019-01-25T10:24:08.335Z,2.40
2019-01-25T10:26:35.073Z,2.40
2019-01-25T10:29:01.671Z,2.70
2019-01-25T10:31:28.208Z,2.40
2019-01-25T10:33:54.813Z,2.50
2019-01-25T10:36:21.471Z,2.50
2019-01-25T10:38:47.948Z,2.40
2019-01-25T10:41:14.521Z,2.80
2019-01-25T10:43:41.091Z,2.80
2019-01-25T10:46:07.653Z,2.70
2019-01-25T10:48:34.341Z,2.90
2019-01-25T10:51:01.036Z,2.60
2019-01-25T10:53:27.628Z,2.60
2019-01-25T10:55:54.211Z,2.40
2019-01-25T10:58:20.777Z,2.90
2019-01-25T11:00:47.324Z,3.00
2019-01-25T11:03:13.916Z,2.60
2019-01-25T11:05:40.373Z,2.80
2019-01-25T11:08:06.956Z,2.60
2019-01-25T11:10:33.512Z,2.70
2019-01-25T11:13:00.986Z,2.80
2019-01-25T11:15:28.024Z,2.90
2019-01-25T11:17:54.489Z,2.60
2019-01-25T11:20:22.748Z,2.70
2019-01-25T11:22:49.328Z,2.30
2019-01-25T11:25:19.314Z,2.60
2019-01-25T11:27:46.017Z,3.20
2019-01-25T11:30:14.998Z,3.10
2019-01-25T11:32:41.771Z,3.20
2019-01-25T11:35:08.471Z,3.50
2019-01-25T11:37:35.135Z,4.00
2019-01-25T11:40:11.022Z,4.10
2019-01-25T11:42:37.726Z,4.20
2019-01-25T11:45:07.900Z,4.60
2019-01-25T11:47:34.248Z,5.50
2019-01-25T11:50:00.637Z,5.40
2019-01-25T11:52:27.068Z,5.40
2019-01-25T11:54:53.460Z,5.90
2019-01-25T11:57:20.838Z,6.60
2019-01-25T11:59:47.453Z,7.50
2019-01-25T12:02:20.754Z,9.40
2019-01-25T12:04:42.464Z,10.90
2019-01-25T12:07:08.920Z,10.30
2019-01-25T12:09:35.508Z,11.00
2019-01-25T12:12:02.057Z,9.80
2019-01-25T12:14:28.528Z,8.70
2019-01-25T12:16:54.876Z,7.80
2019-01-25T12:19:21.464Z,7.70
2019-01-25T12:21:48.027Z,8.70
2019-01-25T12:24:14.766Z,9.60
2019-01-25T12:26:41.234Z,10.10
2019-01-25T12:29:07.902Z,10.90
2019-01-25T12:31:34.586Z,9.80
2019-01-25T12:34:02.860Z,9.10
2019-01-25T12:36:29.415Z,8.50
2019-01-25T12:38:55.972Z,8.10
2019-01-25T12:41:22.439Z,8.00
2019-01-25T12:43:48.817Z,8.20
2019-01-25T12:46:15.275Z,7.70
2019-01-25T12:48:42.037Z,7.80
2019-01-25T12:51:12.112Z,7.50
2019-01-25T12:53:38.603Z,6.70
2019-01-25T12:56:05.432Z,6.80
2019-01-25T12:58:32.088Z,6.30
2019-01-25T13:01:00.589Z,6.50
2019-01-25T13:03:27.162Z,6.00
2019-01-25T13:05:53.596Z,6.40
2019-01-25T13:08:20.202Z,6.20
2019-01-25T13:10:47.020Z,6.30
2019-01-25T13:13:13.683Z,6.00
2019-01-25T13:15:40.236Z,6.10
2019-01-25T13:18:06.901Z,5.90
2019-01-25T13:20:39.373Z,5.60
2019-01-25T13:23:04.221Z,5.80
2019-01-25T13:25:30.765Z,5.90
2019-01-25T13:27:57.270Z,5.60
2019-01-25T13:30:25.848Z,5.60
2019-01-25T13:32:52.517Z,5.30
2019-01-25T13:35:19.056Z,4.80
2019-01-25T13:37:45.633Z,5.00
2019-01-25T13:40:18.987Z,4.80
2019-01-25T13:42:45.555Z,5.00
2019-01-25T13:45:15.203Z,5.00
2019-01-25T13:47:42.001Z,5.50
2019-01-25T13:50:11.939Z,5.60
2019-01-25T13:52:38.535Z,5.00
2019-01-25T13:55:08.204Z,5.30
2019-01-25T13:57:34.652Z,5.70
2019-01-25T14:00:01.331Z,5.40
2019-01-25T14:02:27.793Z,5.80
2019-01-25T14:04:54.377Z,5.50
2019-01-25T14:07:21.159Z,5.30
2019-01-25T14:09:47.995Z,5.40
2019-01-25T14:12:14.429Z,5.00
2019-01-25T14:14:40.936Z,5.20
2019-01-25T14:17:07.508Z,5.00
2019-01-25T14:19:33.964Z,4.80
2019-01-25T14:22:00.358Z,4.80
2019-01-25T14:24:27.180Z,5.20
2019-01-25T14:26:53.535Z,5.20
2019-01-25T14:29:20.206Z,5.20
2019-01-25T14:31:46.972Z,5.00
2019-01-25T14:34:13.528Z,5.30
2019-01-25T14:36:40.369Z,4.80
2019-01-25T14:39:07.312Z,5.10
2019-01-25T14:41:33.882Z,5.10
2019-01-25T14:44:00.681Z,5.10
2019-01-25T14:46:27.141Z,5.30
2019-01-25T14:48:53.692Z,5.10
2019-01-25T14:51:20.198Z,5.10
2019-01-25T14:53:50.810Z,5.00
2019-01-25T14:56:15.228Z,4.90
2019-01-25T14:58:41.710Z,4.80
2019-01-25T15:01:08.393Z,4.80
2019-01-25T15:03:34.860Z,4.80
2019-01-25T15:06:01.428Z,4.70
2019-01-25T15:08:27.889Z,4.80
2019-01-25T15:10:54.498Z,5.00
2019-01-25T15:13:21.059Z,4.70
2019-01-25T15:15:47.801Z,4.90
2019-01-25T15:18:14.480Z,4.80
2019-01-25T15:20:40.939Z,4.50
2019-01-25T15:23:07.728Z,4.90
2019-01-25T15:25:34.602Z,4.80
2019-01-25T15:28:01.060Z,4.50
2019-01-25T15:30:29.116Z,4.80
2019-01-25T15:32:55.791Z,4.60
2019-01-25T15:35:22.364Z,4.50
2019-01-25T15:37:49.254Z,4.60
2019-01-25T15:40:17.708Z,4.80
2019-01-25T15:42:44.872Z,4.50
2019-01-25T15:45:16.703Z,4.50
2019-01-25T15:47:43.597Z,4.50
2019-01-25T15:50:13.551Z,4.40
2019-01-25T15:52:40.223Z,4.80
2019-01-25T15:55:08.020Z,4.80
2019-01-25T15:57:34.581Z,4.70
2019-01-25T16:00:01.595Z,4.40
2019-01-25T16:02:28.339Z,4.10
2019-01-25T16:04:54.875Z,4.50
2019-01-25T16:07:21.551Z,4.50
2019-01-25T16:09:48.141Z,4.70
2019-01-25T16:12:14.956Z,4.30
2019-01-25T16:14:41.331Z,4.20
2019-01-25T16:17:07.817Z,4.50
2019-01-25T16:19:34.463Z,4.20
2019-01-25T16:22:01.215Z,4.40
2019-01-25T16:24:27.897Z,4.30
2019-01-25T16:26:54.348Z,4.30
2019-01-25T16:29:20.981Z,4.20
2019-01-25T16:31:48.124Z,4.20
2019-01-25T16:34:14.701Z,4.40
2019-01-25T16:36:41.165Z,4.30
2019-01-25T16:39:07.925Z,4.50
2019-01-25T16:41:34.579Z,3.90
2019-01-25T16:44:01.280Z,3.90
2019-01-25T16:46:27.776Z,3.80
2019-01-25T16:48:54.396Z,3.90
2019-01-25T16:51:20.925Z,3.90
2019-01-25T16:53:47.513Z,3.70
2019-01-25T16:56:14.005Z,3.50
2019-01-25T16:58:40.947Z,3.40
2019-01-25T17:01:07.723Z,3.40
2019-01-25T17:03:34.096Z,3.40
2019-01-25T17:06:00.566Z,3.40
2019-01-25T17:08:27.147Z,3.40
2019-01-25T17:10:53.905Z,3.10
2019-01-25T17:13:20.472Z,3.00
2019-01-25T17:15:47.041Z,3.00
2019-01-25T17:18:13.506Z,3.00
2019-01-25T17:20:40.169Z,3.00
2019-01-25T17:23:06.856Z,2.90
2019-01-25T17:25:33.339Z,2.70
2019-01-25T17:28:00.264Z,2.80
2019-01-25T17:30:31.459Z,2.90
2019-01-25T17:33:01.924Z,2.80
2019-01-25T17:35:29.103Z,2.80
2019-01-25T17:37:55.969Z,2.70
2019-01-25T17:40:25.338Z,2.70
2019-01-25T17:42:52.000Z,2.70
2019-01-25T17:45:18.654Z,2.80
2019-01-25T17:47:45.247Z,2.80
2019-01-25T17:50:13.107Z,2.70
2019-01-25T17:52:39.788Z,2.60
2019-01-25T17:55:08.861Z,2.80
2019-01-25T17:57:35.506Z,2.70
2019-01-25T18:00:04.872Z,2.70
2019-01-25T18:02:31.419Z,2.70
2019-01-25T18:04:58.326Z,2.70
2019-01-25T18:07:24.905Z,2.60
2019-01-25T18:09:51.468Z,2.60
2019-01-25T18:12:18.179Z,3.10
2019-01-25T18:14:49.135Z,2.70
2019-01-25T18:17:13.617Z,2.90
2019-01-25T18:19:40.184Z,3.00
2019-01-25T18:22:06.771Z,3.00
2019-01-25T18:24:33.260Z,2.50
2019-01-25T18:26:59.934Z,2.70
2019-01-25T18:29:26.783Z,2.80
2019-01-25T18:31:53.458Z,2.70
2019-01-25T18:34:19.906Z,2.70
2019-01-25T18:36:46.386Z,2.70
2019-01-25T18:39:12.997Z,2.70
2019-01-25T18:41:39.682Z,2.70
2019-01-25T18:44:06.608Z,2.80
2019-01-25T18:46:33.384Z,3.00
2019-01-25T18:49:05.881Z,2.90
2019-01-25T18:51:34.369Z,3.00
2019-01-25T18:54:00.944Z,2.90
2019-01-25T18:56:27.406Z,2.90
2019-01-25T18:58:54.011Z,3.00
2019-01-25T19:01:20.475Z,3.00
2019-01-25T19:03:46.962Z,3.10
2019-01-25T19:06:13.751Z,2.90
2019-01-25T19:08:42.171Z,3.20
2019-01-25T19:11:08.816Z,3.20
2019-01-25T19:13:35.715Z,3.20
2019-01-25T19:16:02.647Z,3.20
2019-01-25T19:18:29.237Z,3.30
2019-01-25T19:20:55.741Z,3.20
2019-01-25T19:23:22.447Z,2.90
2019-01-25T19:25:49.100Z,3.00
2019-01-25T19:28:15.859Z,3.00
2019-01-25T19:30:44.103Z,2.80
2019-01-25T19:33:10.773Z,3.10
2019-01-25T19:35:37.440Z,2.90
2019-01-25T19:38:05.226Z,2.90
2019-01-25T19:40:34.876Z,3.00
2019-01-25T19:43:01.584Z,3.00
2019-01-25T19:45:28.151Z,3.00
2019-01-25T19:47:54.702Z,2.70
2019-01-25T19:50:21.494Z,3.00
2019-01-25T19:52:48.190Z,3.00
2019-01-25T19:55:27.282Z,2.90
2019-01-25T19:57:54.742Z,2.90
2019-01-25T20:00:29.815Z,2.90
2019-01-25T20:02:56.464Z,2.80
2019-01-25T20:05:25.529Z,3.20
2019-01-25T20:07:52.444Z,3.10
2019-01-25T20:10:19.829Z,3.20
2019-01-25T20:12:46.667Z,3.20
2019-01-25T20:15:19.543Z,3.10
2019-01-25T20:17:44.679Z,3.30
2019-01-25T20:20:14.068Z,3.20
2019-01-25T20:22:40.624Z,3.20
2019-01-25T20:25:07.807Z,3.20
2019-01-25T20:27:34.256Z,3.20
2019-01-25T20:30:00.949Z,3.10
2019-01-25T20:32:27.483Z,3.60
2019-01-25T20:34:53.993Z,3.30
2019-01-25T20:37:20.718Z,3.30
2019-01-25T20:39:47.300Z,3.20
2019-01-25T20:42:14.019Z,3.30
2019-01-25T20:44:40.500Z,3.20
2019-01-25T20:47:07.347Z,3.30
2019-01-25T20:49:33.806Z,3.40
2019-01-25T20:52:00.381Z,3.40
2019-01-25T20:54:26.920Z,3.40
2019-01-25T20:56:53.505Z,3.10
2019-01-25T20:59:20.148Z,3.20
2019-01-25T21:01:46.529Z,3.20
2019-01-25T21:04:13.168Z,3.20
2019-01-25T21:06:40.113Z,3.20
2019-01-25T21:09:07.580Z,3.10
2019-01-25T21:11:34.063Z,3.40
2019-01-25T21:14:00.608Z,3.60
2019-01-25T21:16:27.080Z,3.50
2019-01-25T21:18:53.636Z,3.30
2019-01-25T21:21:20.304Z,3.40
2019-01-25T21:23:46.972Z,3.60
2019-01-25T21:26:13.550Z,3.60
2019-01-25T21:28:39.992Z,3.50
2019-01-25T21:31:06.656Z,3.50
2019-01-25T21:33:33.332Z,3.50
2019-01-25T21:35:59.852Z,3.50
2019-01-25T21:38:26.708Z,3.60
2019-01-25T21:40:53.364Z,3.50
2019-01-25T21:43:19.873Z,3.40
2019-01-25T21:45:46.521Z,3.50
2019-01-25T21:48:13.549Z,3.40
2019-01-25T21:50:42.023Z,3.50
2019-01-25T21:53:08.790Z,3.50
2019-01-25T21:55:35.560Z,3.50
2019-01-25T21:58:05.366Z,3.70
2019-01-25T22:00:32.787Z,3.60
2019-01-25T22:02:59.888Z,3.70
2019-01-25T22:05:26.553Z,3.80
2019-01-25T22:07:53.325Z,3.70
2019-01-25T22:10:29.693Z,3.60
2019-01-25T22:12:56.388Z,3.70
2019-01-25T22:15:23.295Z,3.70
2019-01-25T22:17:49.874Z,3.60
2019-01-25T22:20:20.257Z,3.90
2019-01-25T22:22:46.905Z,3.70
2019-01-25T22:25:13.996Z,3.70
2019-01-25T22:27:41.252Z,4.10
2019-01-25T22:30:11.521Z,3.90
2019-01-25T22:32:37.979Z,4.00
2019-01-25T22:35:06.696Z,3.90
2019-01-25T22:37:33.551Z,3.90
2019-01-25T22:40:00.016Z,4.00
2019-01-25T22:42:26.402Z,4.00
2019-01-25T22:44:52.787Z,3.90
2019-01-25T22:47:20.499Z,3.90
2019-01-25T22:49:47.125Z,4.00
2019-01-25T22:52:13.689Z,4.10
2019-01-25T22:54:40.556Z,4.30
2019-01-25T22:57:07.368Z,4.40
2019-01-25T22:59:34.049Z,4.10
2019-01-25T23:02:00.804Z,4.20
2019-01-25T23:04:33.602Z,4.30
2019-01-25T23:07:00.841Z,4.40
2019-01-25T23:09:28.822Z,4.20
2019-01-25T23:11:55.279Z,4.30
2019-01-25T23:14:21.830Z,4.30
2019-01-25T23:16:48.460Z,4.30
2019-01-25T23:19:15.001Z,4.50
2019-01-25T23:21:41.544Z,4.20
2019-01-25T23:24:08.225Z,4.30
2019-01-25T23:26:34.675Z,4.40
2019-01-25T23:29:01.232Z,4.30
2019-01-25T23:31:27.932Z,4.40
2019-01-25T23:33:54.458Z,4.30
2019-01-25T23:36:20.863Z,4.60
2019-01-25T23:38:47.307Z,4.50
2019-01-25T23:41:14.096Z,4.50
2019-01-25T23:43:40.672Z,4.70
2019-01-25T23:46:13.672Z,4.70
2019-01-25T23:48:35.773Z,5.10
2019-01-25T23:51:02.767Z,5.10
2019-01-25T23:53:29.516Z,5.10
2019-01-25T23:55:56.000Z,5.00
2019-01-25T23:58:22.550Z,5.40
